createdAt,value
2022-12-13T00:01:12.635Z,5.43
2022-12-13T00:02:15.943Z,5.33
2022-12-13T00:03:19.077Z,5.22
2022-12-13T00:04:23.586Z,5.86
2022-12-13T00:05:26.836Z,5.87
2022-12-13T00:06:30.397Z,5.91
2022-12-13T00:07:34.670Z,5.55
2022-12-13T00:08:38.989Z,5.04
2022-12-13T00:09:42.719Z,5.58
2022-12-13T00:10:45.840Z,5.45
2022-12-13T00:11:49.744Z,5.85
2022-12-13T00:12:53.032Z,5.77
2022-12-13T00:13:56.312Z,5.58
2022-12-13T00:14:59.429Z,5.76
2022-12-13T00:16:05.459Z,5.79
2022-12-13T00:17:08.988Z,6.49
2022-12-13T00:18:12.141Z,5.89
2022-12-13T00:19:16.530Z,5.86
2022-12-13T00:20:19.700Z,5.57
2022-12-13T00:21:25.535Z,6.18
2022-12-13T00:22:28.686Z,5.79
2022-12-13T00:23:32.050Z,5.87
2022-12-13T00:24:35.119Z,6.33
2022-12-13T00:25:38.208Z,6.09
2022-12-13T00:26:41.621Z,5.81
2022-12-13T00:27:44.816Z,6.11
2022-12-13T00:28:50.261Z,6.21
2022-12-13T00:29:53.364Z,5.61
2022-12-13T00:31:04.353Z,6.28
2022-12-13T00:32:03.309Z,6.11
2022-12-13T00:33:06.953Z,6.00
2022-12-13T00:34:10.014Z,6.08
2022-12-13T00:35:13.738Z,6.22
2022-12-13T00:36:17.078Z,6.29
2022-12-13T00:37:20.255Z,6.49
2022-12-13T00:38:23.959Z,6.13
2022-12-13T00:39:27.448Z,6.33
2022-12-13T00:40:30.622Z,6.31
2022-12-13T00:41:35.840Z,6.42
2022-12-13T00:42:38.866Z,6.74
2022-12-13T00:43:42.060Z,5.81
2022-12-13T00:44:45.048Z,6.01
2022-12-13T00:45:48.281Z,6.03
2022-12-13T00:46:51.418Z,5.97
2022-12-13T00:47:54.526Z,5.85
2022-12-13T00:49:00.605Z,6.85
2022-12-13T00:50:04.997Z,5.68
2022-12-13T00:51:09.117Z,7.46
2022-12-13T00:52:12.196Z,6.28
2022-12-13T00:53:15.274Z,6.71
2022-12-13T00:54:18.464Z,6.11
2022-12-13T00:55:21.640Z,6.78
2022-12-13T00:56:27.300Z,6.62
2022-12-13T00:57:30.595Z,6.38
2022-12-13T00:58:34.992Z,7.08
2022-12-13T00:59:38.115Z,6.81
2022-12-13T01:00:41.303Z,6.24
2022-12-13T01:01:45.052Z,6.26
2022-12-13T01:02:48.397Z,6.78
2022-12-13T01:03:54.199Z,6.41
2022-12-13T01:04:57.408Z,6.58
2022-12-13T01:06:16.745Z,7.06
2022-12-13T01:07:05.790Z,6.67
2022-12-13T01:08:08.937Z,6.90
2022-12-13T01:09:21.725Z,7.42
2022-12-13T01:10:25.358Z,6.72
2022-12-13T01:11:28.716Z,6.89
2022-12-13T01:12:32.605Z,7.29
2022-12-13T01:13:36.007Z,6.61
2022-12-13T01:14:40.505Z,7.26
2022-12-13T01:15:51.406Z,7.16
2022-12-13T01:16:57.854Z,6.99
2022-12-13T01:18:01.150Z,7.23
2022-12-13T01:19:04.249Z,7.54
2022-12-13T01:20:09.596Z,7.27
2022-12-13T01:21:15.508Z,6.84
2022-12-13T01:22:18.740Z,7.07
2022-12-13T01:23:22.284Z,6.66
2022-12-13T01:24:25.607Z,7.19
2022-12-13T01:25:28.658Z,7.20
2022-12-13T01:26:32.649Z,7.24
2022-12-13T01:27:37.184Z,7.32
2022-12-13T01:28:40.558Z,7.32
2022-12-13T01:29:43.820Z,7.48
2022-12-13T01:31:01.004Z,7.34
2022-12-13T01:32:04.580Z,7.72
2022-12-13T01:33:14.345Z,7.35
2022-12-13T01:34:15.228Z,7.09
2022-12-13T01:35:18.358Z,7.60
2022-12-13T01:36:27.398Z,8.36
2022-12-13T01:37:27.824Z,8.15
2022-12-13T01:38:31.556Z,7.99
2022-12-13T01:39:38.418Z,7.92
2022-12-13T01:40:50.863Z,8.33
2022-12-13T01:42:02.882Z,7.76
2022-12-13T01:43:14.289Z,7.62
2022-12-13T01:44:52.969Z,8.49
2022-12-13T01:45:56.092Z,7.42
2022-12-13T01:46:59.398Z,8.12
2022-12-13T01:48:05.335Z,7.66
2022-12-13T01:49:19.748Z,7.33
2022-12-13T01:50:23.415Z,7.62
2022-12-13T01:51:30.131Z,7.43
2022-12-13T01:52:34.231Z,7.77
2022-12-13T01:53:40.396Z,7.85
2022-12-13T01:54:47.100Z,7.84
2022-12-13T01:55:53.777Z,7.88
2022-12-13T01:57:00.581Z,7.64
2022-12-13T01:58:04.800Z,7.27
2022-12-13T01:59:10.268Z,7.82
2022-12-13T02:00:14.457Z,7.71
2022-12-13T02:01:18.471Z,8.08
2022-12-13T02:02:22.029Z,7.36
2022-12-13T02:03:25.306Z,7.44
2022-12-13T02:04:32.228Z,8.11
2022-12-13T02:05:41.455Z,7.61
2022-12-13T02:06:46.218Z,6.76
2022-12-13T02:07:50.269Z,7.32
2022-12-13T02:08:53.955Z,7.71
2022-12-13T02:09:59.856Z,7.14
2022-12-13T02:11:04.807Z,7.61
2022-12-13T02:12:08.213Z,7.42
2022-12-13T02:13:12.166Z,7.41
2022-12-13T02:14:15.418Z,7.74
2022-12-13T02:15:19.799Z,8.10
2022-12-13T02:16:32.444Z,8.10
2022-12-13T02:17:45.614Z,7.90
2022-12-13T02:19:14.902Z,6.97
2022-12-13T02:20:43.943Z,7.97
2022-12-13T02:22:11.788Z,7.24
2022-12-13T02:25:09.272Z,7.51
2022-12-13T02:26:41.537Z,7.67
2022-12-13T02:28:04.735Z,7.77
2022-12-13T02:29:30.357Z,7.71
2022-12-13T02:30:40.731Z,7.44
2022-12-13T02:31:53.357Z,7.69
2022-12-13T02:33:21.628Z,7.65
2022-12-13T02:34:25.196Z,6.77
2022-12-13T02:35:31.831Z,7.26
2022-12-13T02:36:38.604Z,7.05
2022-12-13T02:37:54.825Z,7.07
2022-12-13T02:39:18.296Z,7.45
2022-12-13T02:40:38.825Z,6.52
2022-12-13T02:41:51.077Z,6.27
2022-12-13T02:43:03.827Z,6.84
2022-12-13T02:44:23.304Z,6.09
2022-12-13T02:45:48.087Z,6.18
2022-12-13T02:48:13.262Z,6.24
2022-12-13T02:49:17.050Z,5.94
2022-12-13T02:50:21.533Z,6.06
2022-12-13T02:51:26.461Z,5.94
2022-12-13T02:52:31.548Z,5.88
2022-12-13T02:53:36.377Z,5.91
2022-12-13T02:54:42.737Z,5.81
2022-12-13T02:55:45.597Z,6.00
2022-12-13T02:56:54.241Z,5.50
2022-12-13T02:57:57.325Z,5.23
2022-12-13T02:59:04.036Z,5.46
2022-12-13T03:00:26.569Z,5.47
2022-12-13T03:01:49.224Z,5.06
2022-12-13T03:04:44.044Z,4.94
2022-12-13T03:06:08.978Z,5.29
2022-12-13T03:07:21.432Z,4.57
2022-12-13T03:08:37.115Z,4.23
2022-12-13T03:09:55.578Z,4.82
2022-12-13T03:11:10.993Z,5.09
2022-12-13T03:12:50.475Z,4.83
2022-12-13T03:14:06.143Z,4.44
2022-12-13T03:15:30.920Z,5.19
2022-12-13T03:16:43.487Z,4.66
2022-12-13T03:17:56.427Z,4.72
2022-12-13T03:19:02.479Z,4.47
2022-12-13T03:20:12.664Z,4.36
2022-12-13T03:21:12.358Z,4.48
2022-12-13T03:22:16.669Z,4.61
2022-12-13T03:23:20.682Z,4.69
2022-12-13T03:24:23.749Z,4.72
2022-12-13T03:25:31.200Z,4.47
2022-12-13T03:26:38.062Z,4.64
2022-12-13T03:27:41.092Z,4.87
2022-12-13T03:28:44.254Z,4.97
2022-12-13T03:29:47.295Z,4.46
2022-12-13T03:30:50.405Z,4.79
2022-12-13T03:31:53.859Z,4.71
2022-12-13T03:32:57.031Z,4.76
2022-12-13T03:33:59.978Z,4.71
2022-12-13T03:35:03.049Z,4.94
2022-12-13T03:36:08.226Z,4.74
2022-12-13T03:37:11.515Z,4.30
2022-12-13T03:38:22.244Z,2.92
2022-12-13T03:39:23.215Z,2.76
2022-12-13T03:40:26.789Z,2.78
2022-12-13T03:41:33.311Z,2.56
2022-12-13T03:42:36.528Z,2.76
2022-12-13T03:43:42.749Z,2.39
2022-12-13T03:44:45.852Z,2.21
2022-12-13T03:45:49.549Z,1.84
2022-12-13T03:46:53.671Z,1.82
2022-12-13T03:47:57.287Z,1.72
2022-12-13T03:49:01.182Z,1.61
2022-12-13T03:50:25.376Z,1.57
2022-12-13T03:51:09.432Z,1.50
2022-12-13T03:52:12.390Z,1.57
2022-12-13T03:53:21.882Z,1.66
2022-12-13T03:54:20.557Z,1.78
2022-12-13T03:55:23.664Z,1.85
2022-12-13T03:56:27.071Z,1.72
2022-12-13T03:57:30.289Z,1.45
2022-12-13T03:58:35.649Z,1.64
2022-12-13T03:59:39.694Z,1.86
2022-12-13T04:00:43.074Z,1.68
2022-12-13T04:01:46.417Z,1.94
2022-12-13T04:02:49.660Z,1.69
2022-12-13T04:03:52.830Z,1.61
2022-12-13T04:04:56.091Z,1.99
2022-12-13T04:06:01.215Z,1.62
2022-12-13T04:07:04.400Z,2.06
2022-12-13T04:08:21.747Z,1.62
2022-12-13T04:09:14.332Z,1.87
2022-12-13T04:10:25.970Z,1.51
2022-12-13T04:11:43.210Z,2.04
2022-12-13T04:13:04.796Z,1.69
2022-12-13T04:14:08.838Z,2.13
2022-12-13T04:15:12.341Z,1.74
2022-12-13T04:16:15.820Z,1.71
2022-12-13T04:17:19.033Z,1.57
2022-12-13T04:18:22.326Z,1.89
2022-12-13T04:19:25.493Z,2.09
2022-12-13T04:20:28.590Z,1.52
2022-12-13T04:21:31.667Z,1.82
2022-12-13T04:22:34.882Z,1.74
2022-12-13T04:23:38.038Z,1.49
2022-12-13T04:24:41.209Z,1.69
2022-12-13T04:25:44.534Z,1.33
2022-12-13T04:26:47.814Z,1.53
2022-12-13T04:27:51.046Z,1.55
2022-12-13T04:28:54.843Z,1.64
2022-12-13T04:29:58.126Z,1.41
2022-12-13T04:31:01.419Z,1.47
2022-12-13T04:32:05.206Z,1.51
2022-12-13T04:33:10.194Z,1.56
2022-12-13T04:34:13.250Z,1.37
2022-12-13T04:35:16.578Z,1.56
2022-12-13T04:36:31.601Z,1.65
2022-12-13T04:37:26.977Z,1.58
2022-12-13T04:38:30.082Z,1.63
2022-12-13T04:39:34.190Z,1.36
2022-12-13T04:40:37.924Z,1.52
2022-12-13T04:41:40.989Z,2.01
2022-12-13T04:42:44.337Z,1.81
2022-12-13T04:43:52.307Z,1.82
2022-12-13T04:44:55.482Z,1.64
2022-12-13T04:45:58.586Z,1.56
2022-12-13T04:47:02.271Z,1.52
2022-12-13T04:48:05.984Z,2.00
2022-12-13T04:49:09.229Z,1.75
2022-12-13T04:50:12.173Z,1.71
2022-12-13T04:51:16.146Z,2.00
2022-12-13T04:52:22.116Z,1.79
2022-12-13T04:53:23.958Z,1.89
2022-12-13T04:54:27.012Z,2.00
2022-12-13T04:55:32.009Z,1.93
2022-12-13T04:56:35.065Z,1.99
2022-12-13T04:57:38.499Z,2.09
2022-12-13T04:58:41.773Z,2.30
2022-12-13T04:59:46.539Z,2.36
2022-12-13T05:00:49.827Z,1.94
2022-12-13T05:01:52.930Z,2.45
2022-12-13T05:02:56.361Z,2.64
2022-12-13T05:04:01.382Z,2.14
2022-12-13T05:05:04.782Z,2.54
2022-12-13T05:06:27.334Z,2.63
2022-12-13T05:07:15.554Z,2.74
2022-12-13T05:08:18.666Z,2.56
2022-12-13T05:09:22.160Z,2.24
2022-12-13T05:10:32.133Z,2.30
2022-12-13T05:11:35.739Z,2.54
2022-12-13T05:12:35.562Z,2.76
2022-12-13T05:13:38.932Z,2.31
2022-12-13T05:14:42.002Z,2.53
2022-12-13T05:15:46.566Z,3.09
2022-12-13T05:16:50.389Z,2.34
2022-12-13T05:17:53.438Z,2.21
2022-12-13T05:18:56.478Z,2.79
2022-12-13T05:19:59.586Z,2.65
2022-12-13T05:21:04.688Z,2.47
2022-12-13T05:22:14.840Z,2.98
2022-12-13T05:23:22.479Z,2.65
2022-12-13T05:24:21.201Z,2.53
2022-12-13T05:25:25.094Z,2.62
2022-12-13T05:26:28.617Z,2.41
2022-12-13T05:27:31.893Z,3.02
2022-12-13T05:28:35.079Z,2.47
2022-12-13T05:29:38.783Z,3.24
2022-12-13T05:30:42.571Z,3.09
2022-12-13T05:31:45.843Z,3.02
2022-12-13T05:32:49.251Z,3.04
2022-12-13T05:33:53.821Z,3.03
2022-12-13T05:34:57.109Z,3.23
2022-12-13T05:36:02.175Z,2.89
2022-12-13T05:37:05.193Z,3.23
2022-12-13T05:38:08.388Z,3.24
2022-12-13T05:39:27.772Z,3.67
2022-12-13T05:40:16.883Z,3.49
2022-12-13T05:41:24.130Z,3.66
2022-12-13T05:42:27.396Z,3.46
2022-12-13T05:43:42.960Z,3.88
2022-12-13T05:44:35.405Z,3.86
2022-12-13T05:45:38.513Z,3.89
2022-12-13T05:46:41.747Z,3.57
2022-12-13T05:47:45.309Z,3.57
2022-12-13T05:48:48.643Z,3.64
2022-12-13T05:49:54.778Z,3.94
2022-12-13T05:51:10.049Z,4.33
2022-12-13T05:52:02.851Z,4.33
2022-12-13T05:53:06.356Z,4.14
2022-12-13T05:54:09.530Z,4.08
2022-12-13T05:55:12.608Z,4.20
2022-12-13T05:56:22.528Z,4.72
2022-12-13T05:57:20.894Z,5.19
2022-12-13T05:58:24.169Z,4.37
2022-12-13T05:59:27.350Z,4.58
2022-12-13T06:00:31.174Z,4.40
2022-12-13T06:01:34.430Z,4.19
2022-12-13T06:02:42.277Z,8.16
2022-12-13T06:03:45.805Z,5.63
2022-12-13T06:04:49.015Z,5.04
2022-12-13T06:05:52.206Z,6.16
2022-12-13T06:06:55.453Z,7.03
2022-12-13T06:07:59.093Z,5.23
2022-12-13T06:09:03.195Z,6.46
2022-12-13T06:10:10.492Z,5.37
2022-12-13T06:11:31.152Z,5.59
2022-12-13T06:12:31.897Z,5.42
2022-12-13T06:13:32.136Z,4.71
2022-12-13T06:14:30.189Z,5.81
2022-12-13T06:15:34.852Z,5.73
2022-12-13T06:16:38.815Z,6.63
2022-12-13T06:17:41.797Z,6.65
2022-12-13T06:18:54.485Z,7.93
2022-12-13T06:20:00.325Z,7.78
2022-12-13T06:21:06.095Z,7.38
2022-12-13T06:22:09.340Z,8.66
2022-12-13T06:23:12.894Z,7.81
2022-12-13T06:24:21.039Z,7.81
2022-12-13T06:25:30.694Z,7.46
2022-12-13T06:26:29.116Z,7.92
2022-12-13T06:27:33.989Z,6.84
2022-12-13T06:28:38.993Z,7.42
2022-12-13T06:29:42.536Z,6.17
2022-12-13T06:30:46.173Z,7.56
2022-12-13T06:31:51.732Z,6.87
2022-12-13T06:32:54.796Z,6.94
2022-12-13T06:34:13.814Z,7.42
2022-12-13T06:35:28.191Z,7.78
2022-12-13T06:36:14.806Z,7.58
2022-12-13T06:37:17.904Z,7.79
2022-12-13T06:38:31.064Z,8.42
2022-12-13T06:39:26.008Z,7.84
2022-12-13T06:40:31.506Z,7.38
2022-12-13T06:41:35.830Z,7.76
2022-12-13T06:42:38.975Z,8.71
2022-12-13T06:43:47.355Z,8.07
2022-12-13T06:44:56.208Z,8.35
2022-12-13T06:45:57.062Z,9.24
2022-12-13T06:47:11.402Z,8.43
2022-12-13T06:48:05.975Z,9.83
2022-12-13T06:49:10.644Z,9.19
2022-12-13T06:50:14.502Z,9.93
2022-12-13T06:51:23.126Z,9.89
2022-12-13T06:52:22.490Z,10.36
2022-12-13T06:53:25.510Z,9.84
2022-12-13T06:54:29.017Z,9.09
2022-12-13T06:55:32.247Z,9.49
2022-12-13T06:56:35.731Z,9.89
2022-12-13T06:57:40.850Z,9.16
2022-12-13T06:58:43.934Z,10.07
2022-12-13T06:59:47.220Z,10.27
2022-12-13T07:00:50.637Z,10.74
2022-12-13T07:01:53.907Z,10.75
2022-12-13T07:02:59.047Z,10.63
2022-12-13T07:04:02.254Z,10.43
2022-12-13T07:05:06.148Z,11.32
2022-12-13T07:06:16.545Z,10.20
2022-12-13T07:07:19.768Z,10.23
2022-12-13T07:08:23.054Z,11.19
2022-12-13T07:09:26.114Z,10.86
2022-12-13T07:10:29.726Z,11.08
2022-12-13T07:11:33.122Z,11.60
2022-12-13T07:12:37.298Z,10.18
2022-12-13T07:13:40.479Z,10.44
2022-12-13T07:14:43.642Z,10.75
2022-12-13T07:15:47.098Z,10.72
2022-12-13T07:16:50.908Z,10.97
2022-12-13T07:17:54.164Z,11.66
2022-12-13T07:19:01.029Z,10.01
2022-12-13T07:20:09.748Z,10.48
2022-12-13T07:21:21.852Z,10.29
2022-12-13T07:22:19.459Z,10.32
2022-12-13T07:23:24.359Z,9.52
2022-12-13T07:24:27.693Z,10.23
2022-12-13T07:25:31.008Z,8.76
2022-12-13T07:26:34.362Z,7.16
2022-12-13T07:27:37.458Z,7.42
2022-12-13T07:28:40.685Z,7.11
2022-12-13T07:29:44.144Z,6.49
2022-12-13T07:30:48.329Z,5.89
2022-12-13T07:31:51.355Z,6.90
2022-12-13T07:32:54.399Z,6.23
2022-12-13T07:33:57.649Z,6.19
2022-12-13T07:35:01.027Z,6.62
2022-12-13T07:36:09.065Z,6.91
2022-12-13T07:37:30.337Z,6.63
2022-12-13T07:38:17.259Z,6.26
2022-12-13T07:39:22.381Z,6.83
2022-12-13T07:40:26.312Z,6.62
2022-12-13T07:41:29.598Z,5.98
2022-12-13T07:42:34.203Z,6.28
2022-12-13T07:43:37.711Z,5.67
2022-12-13T07:44:40.687Z,6.91
2022-12-13T07:45:43.854Z,6.21
2022-12-13T07:46:46.997Z,6.05
2022-12-13T07:47:50.165Z,6.12
2022-12-13T07:48:53.193Z,6.51
2022-12-13T07:49:58.588Z,6.21
2022-12-13T07:51:04.395Z,6.87
2022-12-13T07:52:12.066Z,6.56
2022-12-13T07:53:15.135Z,6.23
2022-12-13T07:54:18.228Z,6.31
2022-12-13T07:55:22.872Z,6.28
2022-12-13T07:56:26.473Z,6.46
2022-12-13T07:57:29.753Z,5.97
2022-12-13T07:58:32.979Z,7.78
2022-12-13T07:59:36.154Z,7.60
2022-12-13T08:00:46.554Z,7.99
2022-12-13T08:01:46.763Z,7.54
2022-12-13T08:02:49.981Z,8.38
2022-12-13T08:03:53.126Z,8.14
2022-12-13T08:04:56.257Z,9.48
2022-12-13T08:06:02.235Z,8.71
2022-12-13T08:07:09.144Z,8.73
2022-12-13T08:08:12.552Z,8.33
2022-12-13T08:09:15.847Z,8.51
2022-12-13T08:10:19.142Z,8.81
2022-12-13T08:11:22.220Z,8.84
2022-12-13T08:12:26.060Z,8.80
2022-12-13T08:13:29.320Z,8.83
2022-12-13T08:14:32.549Z,9.16
2022-12-13T08:15:35.728Z,9.57
2022-12-13T08:16:39.410Z,9.62
2022-12-13T08:17:42.680Z,9.57
2022-12-13T08:18:47.135Z,9.60
2022-12-13T08:19:50.227Z,9.35
2022-12-13T08:20:58.843Z,9.64
2022-12-13T08:22:02.416Z,9.51
2022-12-13T08:23:05.545Z,9.53
2022-12-13T08:24:12.503Z,9.56
2022-12-13T08:25:13.837Z,8.38
2022-12-13T08:26:17.368Z,8.24
2022-12-13T08:27:20.730Z,8.42
2022-12-13T08:28:26.285Z,9.07
2022-12-13T08:29:33.439Z,8.79
2022-12-13T08:30:37.040Z,8.87
2022-12-13T08:31:40.362Z,8.94
2022-12-13T08:32:43.482Z,8.92
2022-12-13T08:33:47.861Z,9.01
2022-12-13T08:34:51.098Z,9.49
2022-12-13T08:35:54.281Z,9.34
2022-12-13T08:37:01.214Z,12.66
2022-12-13T08:38:02.906Z,13.67
2022-12-13T08:39:06.155Z,12.48
2022-12-13T08:40:10.301Z,12.21
2022-12-13T08:41:13.849Z,12.65
2022-12-13T08:42:20.135Z,12.38
2022-12-13T08:43:24.956Z,11.04
2022-12-13T08:44:28.490Z,12.28
2022-12-13T08:45:33.568Z,12.36
2022-12-13T08:46:36.991Z,11.31
2022-12-13T08:47:42.159Z,10.57
2022-12-13T08:48:45.360Z,10.99
2022-12-13T08:49:48.676Z,11.52
2022-12-13T08:50:52.262Z,12.00
2022-12-13T08:51:55.503Z,13.83
2022-12-13T08:52:58.700Z,13.66
2022-12-13T08:54:09.999Z,13.39
2022-12-13T08:55:07.481Z,12.42
2022-12-13T08:56:12.497Z,10.89
2022-12-13T08:57:15.821Z,10.04
2022-12-13T08:58:19.074Z,8.76
2022-12-13T08:59:24.954Z,8.20
2022-12-13T09:00:28.228Z,7.69
2022-12-13T09:01:33.248Z,7.58
2022-12-13T09:02:38.154Z,7.65
2022-12-13T09:03:41.625Z,7.71
2022-12-13T09:04:44.778Z,9.64
2022-12-13T09:05:48.019Z,8.55
2022-12-13T09:06:51.299Z,9.30
2022-12-13T09:08:02.225Z,9.03
2022-12-13T09:10:26.830Z,8.76
2022-12-13T09:11:23.889Z,8.98
2022-12-13T09:12:29.528Z,9.56
2022-12-13T09:13:31.928Z,8.78
2022-12-13T09:14:34.508Z,9.01
2022-12-13T09:15:39.481Z,8.14
2022-12-13T09:16:50.579Z,8.37
2022-12-13T09:17:52.548Z,8.22
2022-12-13T09:18:56.290Z,7.82
2022-12-13T09:19:59.864Z,7.91
2022-12-13T09:22:33.210Z,7.82
2022-12-13T09:23:26.033Z,6.89
2022-12-13T09:24:29.320Z,7.14
2022-12-13T09:25:37.322Z,7.66
2022-12-13T09:26:39.857Z,7.41
2022-12-13T09:27:43.353Z,7.01
2022-12-13T09:28:46.974Z,7.44
2022-12-13T09:29:50.151Z,7.39
2022-12-13T09:30:53.418Z,7.51
2022-12-13T09:31:57.279Z,7.72
2022-12-13T09:33:18.285Z,7.94
2022-12-13T09:34:05.602Z,7.61
2022-12-13T09:35:09.315Z,8.13
2022-12-13T09:36:15.504Z,8.51
2022-12-13T09:37:23.209Z,8.61
2022-12-13T09:38:23.534Z,8.81
2022-12-13T09:39:26.635Z,9.34
2022-12-13T09:40:30.644Z,8.84
2022-12-13T09:41:41.079Z,8.58
2022-12-13T09:42:47.497Z,8.72
2022-12-13T09:43:54.185Z,9.28
2022-12-13T09:45:05.626Z,9.58
2022-12-13T09:46:13.465Z,8.92
2022-12-13T09:47:22.753Z,9.45
2022-12-13T09:48:28.938Z,8.59
2022-12-13T09:49:39.815Z,8.91
2022-12-13T09:50:53.138Z,9.54
2022-12-13T09:52:10.331Z,9.43
2022-12-13T09:53:00.241Z,9.09
2022-12-13T09:54:02.342Z,10.36
2022-12-13T09:55:21.280Z,9.58
2022-12-13T09:56:24.754Z,10.12
2022-12-13T09:57:33.783Z,10.20
2022-12-13T09:58:37.046Z,9.81
2022-12-13T09:59:41.472Z,10.01
2022-12-13T10:00:47.266Z,10.01
2022-12-13T10:01:50.468Z,9.59
2022-12-13T10:02:56.839Z,10.03
2022-12-13T10:04:00.793Z,9.71
2022-12-13T10:05:22.296Z,11.01
2022-12-13T10:06:22.764Z,9.78
2022-12-13T10:07:26.771Z,11.19
2022-12-13T10:08:36.369Z,11.07
2022-12-13T10:09:39.621Z,10.83
2022-12-13T10:10:44.023Z,9.75
2022-12-13T10:11:51.031Z,11.03
2022-12-13T10:14:39.006Z,10.98
2022-12-13T10:15:45.713Z,10.46
2022-12-13T10:16:52.654Z,9.91
2022-12-13T10:17:56.207Z,10.25
2022-12-13T10:18:59.410Z,11.12
2022-12-13T10:20:03.319Z,10.44
2022-12-13T10:21:12.739Z,10.34
2022-12-13T10:22:18.234Z,10.87
2022-12-13T10:24:06.781Z,10.81
2022-12-13T10:24:36.779Z,11.26
2022-12-13T10:25:46.646Z,10.83
2022-12-13T10:26:51.836Z,10.33
2022-12-13T10:27:55.130Z,11.36
2022-12-13T10:29:03.502Z,10.79
2022-12-13T10:30:12.317Z,10.09
2022-12-13T10:31:17.656Z,10.82
2022-12-13T10:32:21.203Z,10.33
2022-12-13T10:33:33.059Z,10.97
2022-12-13T10:34:37.568Z,10.06
2022-12-13T10:35:42.613Z,10.38
2022-12-13T10:36:45.855Z,11.24
2022-12-13T10:37:48.998Z,10.94
2022-12-13T10:38:52.131Z,11.01
2022-12-13T10:39:55.231Z,11.01
2022-12-13T10:40:58.517Z,10.88
2022-12-13T10:42:22.887Z,9.49
2022-12-13T10:43:29.806Z,9.85
2022-12-13T10:44:32.884Z,10.68
2022-12-13T10:45:36.059Z,10.58
2022-12-13T10:46:42.603Z,11.22
2022-12-13T10:47:45.782Z,11.31
2022-12-13T10:48:51.552Z,11.80
2022-12-13T10:50:00.801Z,11.93
2022-12-13T10:51:07.054Z,11.66
2022-12-13T10:52:31.309Z,11.48
2022-12-13T10:53:33.693Z,11.23
2022-12-13T10:54:38.350Z,10.82
2022-12-13T10:55:42.169Z,10.70
2022-12-13T10:56:50.881Z,11.15
2022-12-13T10:58:09.265Z,11.04
2022-12-13T10:59:20.500Z,10.31
2022-12-13T11:00:35.344Z,11.10
2022-12-13T11:01:38.646Z,10.38
2022-12-13T11:02:45.541Z,10.48
2022-12-13T11:04:01.988Z,10.29
2022-12-13T11:05:25.128Z,10.82
2022-12-13T11:06:46.181Z,10.74
2022-12-13T11:08:55.298Z,11.14
2022-12-13T11:10:22.350Z,11.48
2022-12-13T11:11:29.814Z,11.57
2022-12-13T14:52:27.613Z,6.04
2022-12-13T14:53:37.190Z,5.96
2022-12-13T14:54:49.842Z,5.89
2022-12-13T14:56:18.709Z,5.82
2022-12-13T14:58:31.946Z,5.39
2022-12-13T14:59:34.912Z,5.89
2022-12-13T15:00:40.017Z,5.81
2022-12-13T15:01:43.945Z,5.13
2022-12-13T15:02:53.547Z,5.35
2022-12-13T15:04:16.795Z,5.49
2022-12-13T15:05:45.713Z,5.61
2022-12-13T15:06:50.253Z,5.04
2022-12-13T15:07:53.428Z,5.18
2022-12-13T15:08:56.507Z,5.48
2022-12-13T15:10:35.801Z,5.24
2022-12-13T15:11:39.355Z,4.22
2022-12-13T15:12:43.912Z,4.59
2022-12-13T15:13:50.884Z,3.89
2022-12-13T15:15:03.342Z,4.12
2022-12-13T15:16:12.224Z,5.62
2022-12-13T15:17:32.785Z,5.82
2022-12-13T15:18:40.676Z,4.59
2022-12-13T15:19:48.685Z,4.72
2022-12-13T15:20:52.919Z,4.56
2022-12-13T15:22:02.077Z,3.82
2022-12-13T15:23:22.162Z,4.38
2022-12-13T15:24:33.745Z,3.96
2022-12-13T15:25:38.858Z,4.37
2022-12-13T15:26:42.638Z,4.52
2022-12-13T15:27:48.297Z,4.22
2022-12-13T15:28:54.954Z,4.28
2022-12-13T15:29:58.030Z,4.58
2022-12-13T15:31:03.925Z,4.41
2022-12-13T15:32:10.720Z,4.41
2022-12-13T15:33:28.929Z,4.28
2022-12-13T15:34:31.686Z,4.02
2022-12-13T15:35:36.869Z,5.01
2022-12-13T15:36:40.899Z,4.51
2022-12-13T15:37:46.407Z,4.07
2022-12-13T15:38:59.990Z,4.50
2022-12-13T15:40:08.392Z,4.59
2022-12-13T15:41:19.020Z,4.73
2022-12-13T15:42:31.621Z,4.79
2022-12-13T15:43:38.244Z,4.00
2022-12-13T15:44:47.994Z,4.77
2022-12-13T15:45:52.423Z,4.37
2022-12-13T15:47:01.986Z,4.89
2022-12-13T15:48:05.397Z,4.98
2022-12-13T15:49:12.029Z,5.41
2022-12-13T15:50:36.314Z,4.41
2022-12-13T15:52:01.374Z,4.56
2022-12-13T15:53:07.932Z,5.01
2022-12-13T15:54:16.362Z,4.13
2022-12-13T15:55:28.642Z,4.63
2022-12-13T15:56:36.640Z,4.24
2022-12-13T15:57:56.265Z,4.66
2022-12-13T15:59:00.687Z,3.98
2022-12-13T16:00:20.040Z,4.22
2022-12-13T16:01:31.404Z,3.42
2022-12-13T16:02:35.159Z,3.35
2022-12-13T16:03:43.731Z,3.34
2022-12-13T16:04:47.315Z,3.72
2022-12-13T16:05:53.163Z,2.61
2022-12-13T16:06:56.866Z,2.63
2022-12-13T16:08:14.171Z,2.91
2022-12-13T16:09:11.476Z,2.19
2022-12-13T16:10:18.273Z,2.56
2022-12-13T16:11:37.576Z,2.22
2022-12-13T16:12:50.136Z,2.34
2022-12-13T16:13:58.461Z,2.74
2022-12-13T16:15:20.324Z,2.18
2022-12-13T16:16:29.652Z,2.25
2022-12-13T16:17:32.806Z,2.17
2022-12-13T16:18:47.869Z,2.90
2022-12-13T16:19:53.680Z,2.24
2022-12-13T16:20:57.819Z,2.65
2022-12-13T16:22:00.934Z,2.50
2022-12-13T16:23:08.569Z,2.83
2022-12-13T16:24:08.905Z,2.56
2022-12-13T16:25:17.437Z,2.64
2022-12-13T16:26:24.912Z,2.19
2022-12-13T16:27:28.028Z,2.33
2022-12-13T16:28:31.418Z,2.12
2022-12-13T16:29:34.531Z,2.50
2022-12-13T16:30:56.206Z,2.15
2022-12-13T16:32:07.868Z,2.58
2022-12-13T16:33:18.544Z,2.60
2022-12-13T16:34:10.006Z,3.24
2022-12-13T16:35:13.033Z,2.92
2022-12-13T16:36:16.466Z,2.49
2022-12-13T16:37:26.259Z,2.30
2022-12-13T16:38:27.528Z,2.83
2022-12-13T16:39:30.743Z,2.42
2022-12-13T16:40:33.949Z,2.23
2022-12-13T16:41:47.185Z,2.56
2022-12-13T16:42:50.324Z,2.49
2022-12-13T16:43:58.933Z,2.37
2022-12-13T16:45:39.504Z,2.27
2022-12-13T16:47:12.024Z,1.84
2022-12-13T16:47:23.365Z,1.55
2022-12-13T16:48:20.823Z,1.36
2022-12-13T16:49:27.234Z,1.61
2022-12-13T16:50:30.614Z,1.66
2022-12-13T16:51:33.708Z,1.52
2022-12-13T16:52:38.564Z,1.56
2022-12-13T16:53:41.695Z,1.49
2022-12-13T16:54:44.737Z,1.37
2022-12-13T16:55:58.363Z,1.44
2022-12-13T16:56:53.438Z,1.51
2022-12-13T16:57:59.224Z,1.61
2022-12-13T16:59:02.213Z,1.92
2022-12-13T17:00:09.784Z,1.81
2022-12-13T17:01:15.257Z,1.93
2022-12-13T17:02:19.994Z,2.08
2022-12-13T17:03:23.542Z,2.19
2022-12-13T17:04:26.981Z,2.25
2022-12-13T17:05:30.650Z,1.94
2022-12-13T17:06:33.908Z,1.88
2022-12-13T17:07:37.119Z,2.27
2022-12-13T17:08:40.592Z,1.99
2022-12-13T17:09:43.641Z,1.92
2022-12-13T17:10:46.686Z,2.31
2022-12-13T17:11:51.659Z,2.30
2022-12-13T17:12:54.579Z,2.51
2022-12-13T17:13:58.981Z,2.54
2022-12-13T17:15:02.074Z,2.75
2022-12-13T17:16:06.338Z,2.63
2022-12-13T17:17:12.982Z,2.81
2022-12-13T17:18:15.259Z,2.02
2022-12-13T17:19:18.923Z,2.13
2022-12-13T17:20:22.532Z,2.39
2022-12-13T17:21:26.430Z,2.01
2022-12-13T17:22:29.504Z,1.44
2022-12-13T17:23:32.630Z,1.68
2022-12-13T17:24:37.613Z,1.24
2022-12-13T17:25:40.834Z,1.44
2022-12-13T17:26:54.361Z,1.16
2022-12-13T17:27:48.996Z,1.42
2022-12-13T17:28:52.652Z,1.44
2022-12-13T17:29:55.623Z,1.27
2022-12-13T17:31:11.310Z,1.28
2022-12-13T17:32:14.462Z,1.66
2022-12-13T17:33:17.843Z,1.43
2022-12-13T17:34:20.881Z,1.46
2022-12-13T17:35:25.753Z,1.61
2022-12-13T17:36:30.645Z,1.45
2022-12-13T17:37:33.751Z,1.52
2022-12-13T17:38:37.036Z,1.54
2022-12-13T17:39:40.165Z,1.12
2022-12-13T17:40:43.213Z,1.56
2022-12-13T17:41:55.106Z,1.32
2022-12-13T17:42:53.285Z,1.36
2022-12-13T17:44:00.261Z,1.64
2022-12-13T17:45:03.699Z,1.88
2022-12-13T17:46:12.787Z,2.37
2022-12-13T17:47:15.937Z,2.42
2022-12-13T17:48:19.031Z,1.93
2022-12-13T17:49:22.512Z,1.96
2022-12-13T17:50:26.306Z,1.63
2022-12-13T17:51:29.402Z,1.59
2022-12-13T17:52:32.479Z,1.16
2022-12-13T17:53:36.320Z,1.34
2022-12-13T17:54:39.542Z,1.50
2022-12-13T17:55:42.751Z,1.36
2022-12-13T17:56:46.255Z,1.39
2022-12-13T17:57:49.392Z,1.42
2022-12-13T17:58:52.504Z,1.31
2022-12-13T17:59:55.543Z,1.31
2022-12-13T18:01:00.942Z,1.18
2022-12-13T18:02:04.306Z,1.63
2022-12-13T18:03:07.649Z,1.92
2022-12-13T18:04:12.073Z,1.50
2022-12-13T18:05:18.008Z,1.83
2022-12-13T18:06:20.448Z,1.44
2022-12-13T18:07:23.497Z,1.64
2022-12-13T18:08:27.430Z,1.80
2022-12-13T18:09:30.382Z,1.58
2022-12-13T18:10:33.591Z,1.81
2022-12-13T18:11:36.636Z,1.36
2022-12-13T18:12:39.827Z,1.55
2022-12-13T18:13:42.805Z,1.29
2022-12-13T18:14:45.900Z,1.42
2022-12-13T18:15:49.203Z,1.80
2022-12-13T18:16:52.319Z,1.46
2022-12-13T18:18:13.702Z,1.54
2022-12-13T18:19:05.396Z,1.41
2022-12-13T18:20:09.551Z,1.31
2022-12-13T18:21:14.736Z,1.36
2022-12-13T18:22:18.014Z,1.33
2022-12-13T18:23:21.055Z,1.62
2022-12-13T18:24:24.619Z,1.86
2022-12-13T18:25:29.108Z,1.29